IAD weather

Washington Dulles International Airport
Washington, District of Columbia, United States

Public forecast

Using degrees Fahrenheit for public forecast. Weather courtesy of forecast.io.

METAR (pilot weather report)

Retrieved 2017/04/27 00:52 UTC (17 minutes ago):

KIAD 270052Z 13004KT 10SM SCT250 18/14 A2980

TAF (pilot weather forecast)

Forecast is more than 12 hours old.

Retrieved 2017/04/26 00:48 UTC (1 day ago):

TAF KIAD 262343Z 2700/2806 VRB04KT P6SM FEW250 FM270400 VRB03KT P6SM SKC FM270600 00000KT 4SM BR BKN020 FM270900 00000KT 1SM BR OVC005 FM271400 VRB03KT 3SM BR SCT008 FM271500 17005KT P6SM SCT010 FM271700 18011G18KT P6SM FEW040 FM280300 19008KT P6SM BKN040